Time;durP1;ratioP1;P1;durP2;ratioP2;P2;SDS_P1;SDS_P2;PMS_P1;PMS_P2;Temp;Humidity;BMP_temperature;BMP_pressure;BME280_temperature;BME280_humidity;BME280_pressure;Samples;Min_cycle;Max_cycle;Signal;HPM_P1;HPM_P2
2023/12/18 00:01:50;;;;;;;0.10;0.10;;;;;;;;;;6278520;28;20013;-77
2023/12/18 00:04:50;;;;;;;0.20;0.20;;;;;;;;;;6246782;28;20057;-76
2023/12/18 00:07:50;;;;;;;0.20;0.20;;;;;;;;;;6257809;28;20104;-76
2023/12/18 00:10:50;;;;;;;0.20;0.20;;;;;;;;;;6289870;28;20044;-76
2023/12/18 00:13:51;;;;;;;0.20;0.20;;;;;;;;;;6266688;28;20017;-76
2023/12/18 00:16:51;;;;;;;0.20;0.20;;;;;;;;;;6253205;28;20823;-77
2023/12/18 00:19:51;;;;;;;0.20;0.20;;;;;;;;;;6254499;28;20029;-77
2023/12/18 00:22:51;;;;;;;0.20;0.20;;;;;;;;;;6258449;28;20071;-78
2023/12/18 00:25:52;;;;;;;0.20;0.20;;;;;;;;;;6255615;28;20020;-78
2023/12/18 00:28:52;;;;;;;0.20;0.20;;;;;;;;;;6253282;28;20475;-78
2023/12/18 00:31:52;;;;;;;0.20;0.20;;;;;;;;;;6274124;28;20528;-77
2023/12/18 00:34:52;;;;;;;0.20;0.20;;;;;;;;;;6271901;28;20124;-78
2023/12/18 00:37:53;;;;;;;0.20;0.20;;;;;;;;;;6251537;28;20028;-78
2023/12/18 00:40:53;;;;;;;0.20;0.20;;;;;;;;;;6281207;28;20021;-78
2023/12/18 00:43:53;;;;;;;0.20;0.20;;;;;;;;;;6261622;28;20032;-78
2023/12/18 00:46:53;;;;;;;0.20;0.20;;;;;;;;;;6291854;28;20062;-78
2023/12/18 00:49:54;;;;;;;0.20;0.20;;;;;;;;;;6246173;28;20009;-78
2023/12/18 00:52:54;;;;;;;0.20;0.20;;;;;;;;;;6288252;28;20062;-78
2023/12/18 00:55:54;;;;;;;0.20;0.20;;;;;;;;;;6265219;28;20024;-78
2023/12/18 00:58:54;;;;;;;0.20;0.20;;;;;;;;;;6256760;28;20013;-78
2023/12/18 01:01:55;;;;;;;0.20;0.20;;;;;;;;;;6263933;28;20032;-77
2023/12/18 01:04:55;;;;;;;0.20;0.20;;;;;;;;;;6245478;28;20056;-77
2023/12/18 01:07:55;;;;;;;0.20;0.20;;;;;;;;;;6261919;28;20444;-78
2023/12/18 01:10:55;;;;;;;0.20;0.20;;;;;;;;;;6245361;28;20501;-77
2023/12/18 01:13:56;;;;;;;0.20;0.20;;;;;;;;;;6266836;28;20028;-77
2023/12/18 01:16:56;;;;;;;0.20;0.20;;;;;;;;;;6264726;28;20013;-77
2023/12/18 01:19:56;;;;;;;0.20;0.20;;;;;;;;;;6264043;28;20635;-77
2023/12/18 01:22:56;;;;;;;0.20;0.20;;;;;;;;;;6264846;28;20013;-77
2023/12/18 01:25:57;;;;;;;0.10;0.10;;;;;;;;;;6266150;28;20105;-77
2023/12/18 01:28:57;;;;;;;0.20;0.20;;;;;;;;;;6262500;28;20403;-76
2023/12/18 01:31:57;;;;;;;0.20;0.20;;;;;;;;;;6253893;28;20022;-77
2023/12/18 01:34:57;;;;;;;0.20;0.20;;;;;;;;;;6279511;28;20041;-77
2023/12/18 01:37:58;;;;;;;0.20;0.20;;;;;;;;;;6268484;28;20021;-77
2023/12/18 01:40:58;;;;;;;0.20;0.20;;;;;;;;;;6260618;28;20024;-77
2023/12/18 01:43:58;;;;;;;0.20;0.20;;;;;;;;;;6287207;28;20058;-77
2023/12/18 01:46:58;;;;;;;0.20;0.20;;;;;;;;;;6283746;28;20025;-76
2023/12/18 01:49:59;;;;;;;0.20;0.20;;;;;;;;;;6275242;28;20022;-77
2023/12/18 01:52:59;;;;;;;0.20;0.20;;;;;;;;;;6265849;28;20009;-77
2023/12/18 01:56:01;;;;;;;0.20;0.20;;;;;;;;;;6272588;28;20025;-77
2023/12/18 01:59:02;;;;;;;0.20;0.20;;;;;;;;;;6295844;28;20108;-77
2023/12/18 02:02:02;;;;;;;0.20;0.20;;;;;;;;;;6276949;28;20386;-77
2023/12/18 02:05:02;;;;;;;0.20;0.20;;;;;;;;;;6275353;28;20060;-77
2023/12/18 02:08:03;;;;;;;0.20;0.20;;;;;;;;;;6271463;28;20024;-77
2023/12/18 02:11:04;;;;;;;0.20;0.20;;;;;;;;;;6277946;28;20025;-77
2023/12/18 02:14:04;;;;;;;0.20;0.20;;;;;;;;;;6270596;28;20029;-77
2023/12/18 02:17:05;;;;;;;0.20;0.20;;;;;;;;;;6269869;28;20044;-77
2023/12/18 02:20:06;;;;;;;0.20;0.20;;;;;;;;;;6269512;28;20025;-77
2023/12/18 02:23:06;;;;;;;0.20;0.20;;;;;;;;;;6265241;28;20021;-77
2023/12/18 02:26:06;;;;;;;0.20;0.20;;;;;;;;;;6270990;28;20021;-77
2023/12/18 02:29:07;;;;;;;0.20;0.20;;;;;;;;;;6265884;28;20022;-77
2023/12/18 02:32:07;;;;;;;0.20;0.20;;;;;;;;;;6253479;28;20017;-77
2023/12/18 02:35:07;;;;;;;0.20;0.20;;;;;;;;;;6271182;28;20040;-77
2023/12/18 02:38:08;;;;;;;0.20;0.20;;;;;;;;;;6266637;28;20146;-77
2023/12/18 02:41:09;;;;;;;0.20;0.20;;;;;;;;;;6269759;28;20022;-77
2023/12/18 02:44:09;;;;;;;0.20;0.20;;;;;;;;;;6267658;28;20047;-78
2023/12/18 02:47:09;;;;;;;0.20;0.20;;;;;;;;;;6278116;28;20461;-78
2023/12/18 02:50:11;;;;;;;0.20;0.20;;;;;;;;;;6261793;28;20542;-77
2023/12/18 02:53:11;;;;;;;0.20;0.20;;;;;;;;;;6256201;28;20017;-77
2023/12/18 02:56:12;;;;;;;0.20;0.20;;;;;;;;;;6256772;28;20025;-77
2023/12/18 02:59:13;;;;;;;0.20;0.20;;;;;;;;;;6244476;28;20021;-77
2023/12/18 03:02:13;;;;;;;0.20;0.20;;;;;;;;;;6254573;28;20013;-77
2023/12/18 03:05:14;;;;;;;0.20;0.20;;;;;;;;;;6249754;28;20129;-77
2023/12/18 03:08:14;;;;;;;0.20;0.20;;;;;;;;;;6281914;28;20012;-78
2023/12/18 03:11:14;;;;;;;0.20;0.20;;;;;;;;;;6246635;28;20109;-77
2023/12/18 03:14:14;;;;;;;0.20;0.20;;;;;;;;;;6271757;28;20017;-77
2023/12/18 03:17:15;;;;;;;0.20;0.20;;;;;;;;;;6263248;28;20434;-77
2023/12/18 03:20:15;;;;;;;0.20;0.20;;;;;;;;;;6279509;28;20067;-77
2023/12/18 03:23:15;;;;;;;0.20;0.20;;;;;;;;;;6259565;28;20067;-77
2023/12/18 03:26:15;;;;;;;0.20;0.20;;;;;;;;;;6252465;28;20017;-77
2023/12/18 03:29:16;;;;;;;0.20;0.20;;;;;;;;;;6269419;28;20015;-77
2023/12/18 03:32:16;;;;;;;0.20;0.20;;;;;;;;;;6273896;28;20454;-77
2023/12/18 03:35:17;;;;;;;0.20;0.20;;;;;;;;;;6278660;28;20052;-77
2023/12/18 03:38:17;;;;;;;0.20;0.20;;;;;;;;;;6293248;28;20024;-77
2023/12/18 03:41:17;;;;;;;0.20;0.20;;;;;;;;;;6261695;28;20021;-77
2023/12/18 03:44:17;;;;;;;0.20;0.20;;;;;;;;;;6267679;28;20111;-77
2023/12/18 03:47:17;;;;;;;0.20;0.20;;;;;;;;;;6257171;28;20108;-77
2023/12/18 03:50:18;;;;;;;0.20;0.20;;;;;;;;;;6257404;28;20526;-77
2023/12/18 03:53:18;;;;;;;0.20;0.20;;;;;;;;;;6262179;28;20371;-77
2023/12/18 03:56:18;;;;;;;0.20;0.20;;;;;;;;;;6264628;28;20541;-77
2023/12/18 03:59:19;;;;;;;0.20;0.20;;;;;;;;;;6255372;28;20017;-77
2023/12/18 04:02:19;;;;;;;0.20;0.20;;;;;;;;;;6252500;28;20017;-78
2023/12/18 04:05:19;;;;;;;0.20;0.20;;;;;;;;;;6253052;28;20511;-78
2023/12/18 04:08:20;;;;;;;0.30;0.30;;;;;;;;;;6254532;28;20026;-78
2023/12/18 04:11:21;;;;;;;0.20;0.20;;;;;;;;;;6279072;28;20112;-78
2023/12/18 04:14:21;;;;;;;0.20;0.20;;;;;;;;;;6267096;28;20045;-79
2023/12/18 04:17:21;;;;;;;0.20;0.20;;;;;;;;;;6252640;28;20090;-79
2023/12/18 04:20:22;;;;;;;0.20;0.20;;;;;;;;;;6269956;28;20096;-79
2023/12/18 04:23:22;;;;;;;0.20;0.20;;;;;;;;;;6258191;28;20017;-79
2023/12/18 04:26:22;;;;;;;0.20;0.20;;;;;;;;;;6260494;28;20052;-79
2023/12/18 04:29:22;;;;;;;0.30;0.30;;;;;;;;;;6270760;28;20031;-79
2023/12/18 04:32:23;;;;;;;0.20;0.20;;;;;;;;;;6274048;28;20021;-79
2023/12/18 04:35:23;;;;;;;0.20;0.20;;;;;;;;;;6255735;28;20021;-79
2023/12/18 04:38:23;;;;;;;0.20;0.20;;;;;;;;;;6269283;28;20396;-80
2023/12/18 04:41:23;;;;;;;0.30;0.30;;;;;;;;;;6277740;28;20542;-80
2023/12/18 04:44:24;;;;;;;0.20;0.20;;;;;;;;;;6291553;28;20510;-80
2023/12/18 04:47:24;;;;;;;0.20;0.20;;;;;;;;;;6291928;28;20020;-80
2023/12/18 04:50:24;;;;;;;0.20;0.20;;;;;;;;;;6273496;28;20463;-81
2023/12/18 04:53:25;;;;;;;0.20;0.20;;;;;;;;;;6242931;28;20497;-80
2023/12/18 04:56:26;;;;;;;0.20;0.20;;;;;;;;;;6247144;28;20025;-81
2023/12/18 04:59:27;;;;;;;0.20;0.20;;;;;;;;;;6291924;28;20017;-81
2023/12/18 05:02:27;;;;;;;0.20;0.20;;;;;;;;;;6267101;28;20028;-81
2023/12/18 05:05:27;;;;;;;0.30;0.30;;;;;;;;;;6279017;28;20610;-81
2023/12/18 05:08:28;;;;;;;0.20;0.20;;;;;;;;;;6247603;28;20487;-81
2023/12/18 05:11:29;;;;;;;0.30;0.30;;;;;;;;;;6270627;28;20024;-81
2023/12/18 05:14:29;;;;;;;0.20;0.20;;;;;;;;;;6281409;28;20009;-76
2023/12/18 05:17:29;;;;;;;0.20;0.20;;;;;;;;;;6274121;28;20623;-76
2023/12/18 05:20:29;;;;;;;0.20;0.20;;;;;;;;;;6257259;28;20486;-76
2023/12/18 05:23:30;;;;;;;0.20;0.20;;;;;;;;;;6270382;28;20449;-76
2023/12/18 05:26:30;;;;;;;0.20;0.20;;;;;;;;;;6276725;28;20369;-77
2023/12/18 05:29:30;;;;;;;0.20;0.20;;;;;;;;;;6276113;28;20021;-77
2023/12/18 05:32:30;;;;;;;0.20;0.20;;;;;;;;;;6291285;28;20020;-76
2023/12/18 05:35:30;;;;;;;0.20;0.20;;;;;;;;;;6280870;28;20025;-76
2023/12/18 05:38:31;;;;;;;0.20;0.20;;;;;;;;;;6281984;28;20025;-76
2023/12/18 05:41:31;;;;;;;0.20;0.20;;;;;;;;;;6280230;28;20024;-77
2023/12/18 05:44:31;;;;;;;0.20;0.20;;;;;;;;;;6294284;28;20024;-76
2023/12/18 05:47:31;;;;;;;0.20;0.20;;;;;;;;;;6257613;28;20502;-77
2023/12/18 05:50:32;;;;;;;0.20;0.20;;;;;;;;;;6263708;28;20384;-77
2023/12/18 05:53:32;;;;;;;0.20;0.20;;;;;;;;;;6266844;28;20016;-77
2023/12/18 05:56:32;;;;;;;0.20;0.20;;;;;;;;;;6259701;28;20387;-77
2023/12/18 05:59:33;;;;;;;0.20;0.20;;;;;;;;;;6247283;28;20486;-77
2023/12/18 06:02:33;;;;;;;0.20;0.20;;;;;;;;;;6259585;28;20121;-78
2023/12/18 06:05:34;;;;;;;0.20;0.20;;;;;;;;;;6251115;28;20049;-77
2023/12/18 06:08:34;;;;;;;0.20;0.20;;;;;;;;;;6256837;28;20423;-77
2023/12/18 06:11:34;;;;;;;0.20;0.20;;;;;;;;;;6263086;28;20229;-77
2023/12/18 06:14:34;;;;;;;0.20;0.20;;;;;;;;;;6264740;28;20012;-78
2023/12/18 06:17:35;;;;;;;0.20;0.20;;;;;;;;;;6254132;28;20020;-78
2023/12/18 06:20:35;;;;;;;0.20;0.20;;;;;;;;;;6254248;28;20040;-78
2023/12/18 06:23:35;;;;;;;0.20;0.20;;;;;;;;;;6249591;28;20037;-78
2023/12/18 06:26:35;;;;;;;0.20;0.20;;;;;;;;;;6258566;28;20099;-78
2023/12/18 06:29:36;;;;;;;0.20;0.20;;;;;;;;;;6268105;28;20587;-78
2023/12/18 06:32:36;;;;;;;0.20;0.20;;;;;;;;;;6249438;28;20024;-78
2023/12/18 06:35:36;;;;;;;0.20;0.20;;;;;;;;;;6250392;28;20057;-77
2023/12/18 06:38:36;;;;;;;0.20;0.20;;;;;;;;;;6250414;28;20104;-77
2023/12/18 06:41:37;;;;;;;0.20;0.20;;;;;;;;;;6252265;28;20144;-77
2023/12/18 06:44:37;;;;;;;0.20;0.20;;;;;;;;;;6255241;28;20087;-77
2023/12/18 06:47:37;;;;;;;0.20;0.20;;;;;;;;;;6259044;28;20511;-77
2023/12/18 06:50:37;;;;;;;0.20;0.20;;;;;;;;;;6252335;28;20570;-77
2023/12/18 06:53:39;;;;;;;0.20;0.20;;;;;;;;;;6250527;28;20404;-77
2023/12/18 06:56:39;;;;;;;0.20;0.20;;;;;;;;;;6262875;28;20013;-77
2023/12/18 06:59:40;;;;;;;0.20;0.20;;;;;;;;;;6246815;28;20044;-77
2023/12/18 07:02:40;;;;;;;0.20;0.20;;;;;;;;;;6266969;28;20475;-78
2023/12/18 07:05:40;;;;;;;0.20;0.20;;;;;;;;;;6246503;28;20048;-78
2023/12/18 07:08:41;;;;;;;0.20;0.20;;;;;;;;;;6245934;28;20029;-78
2023/12/18 07:11:41;;;;;;;0.20;0.20;;;;;;;;;;6251228;28;20527;-78
2023/12/18 07:14:41;;;;;;;0.20;0.20;;;;;;;;;;6266922;28;20505;-78
2023/12/18 07:17:42;;;;;;;0.20;0.20;;;;;;;;;;6257034;28;20123;-78
2023/12/18 07:20:43;;;;;;;0.20;0.20;;;;;;;;;;6251285;28;20033;-78
2023/12/18 07:23:43;;;;;;;0.20;0.20;;;;;;;;;;6249316;28;20079;-78
2023/12/18 07:26:44;;;;;;;0.20;0.20;;;;;;;;;;6251017;28;20033;-78
2023/12/18 07:29:44;;;;;;;0.20;0.20;;;;;;;;;;6251386;28;20033;-78
2023/12/18 07:32:44;;;;;;;0.20;0.20;;;;;;;;;;6251646;28;20479;-79
2023/12/18 07:35:46;;;;;;;0.20;0.20;;;;;;;;;;6252078;28;20110;-79
2023/12/18 07:38:46;;;;;;;0.10;0.10;;;;;;;;;;6244786;28;20017;-79
2023/12/18 07:41:47;;;;;;;0.13;0.13;;;;;;;;;;6265391;28;20040;-80
2023/12/18 07:44:47;;;;;;;0.20;0.20;;;;;;;;;;6268247;28;20120;-79
2023/12/18 07:47:47;;;;;;;0.10;0.10;;;;;;;;;;6247898;28;20120;-80
2023/12/18 07:50:47;;;;;;;0.10;0.10;;;;;;;;;;6253402;28;20063;-80
2023/12/18 07:53:48;;;;;;;0.10;0.10;;;;;;;;;;6262686;28;20025;-80
2023/12/18 07:56:49;;;;;;;0.10;0.10;;;;;;;;;;6261415;28;20021;-80
2023/12/18 07:59:49;;;;;;;0.10;0.10;;;;;;;;;;6257574;28;20025;-80
2023/12/18 08:02:49;;;;;;;0.10;0.10;;;;;;;;;;6248280;28;20120;-79
2023/12/18 08:05:50;;;;;;;0.10;0.10;;;;;;;;;;6251124;28;20431;-79
2023/12/18 08:08:50;;;;;;;0.20;0.20;;;;;;;;;;6248543;28;20069;-79
2023/12/18 08:11:50;;;;;;;0.20;0.20;;;;;;;;;;6248203;28;20013;-78
2023/12/18 08:14:50;;;;;;;0.20;0.20;;;;;;;;;;6253676;28;20017;-78
2023/12/18 08:17:51;;;;;;;0.17;0.17;;;;;;;;;;6260272;28;20394;-78
2023/12/18 08:20:51;;;;;;;0.10;0.10;;;;;;;;;;6258221;28;20036;-76
2023/12/18 08:23:52;;;;;;;0.10;0.10;;;;;;;;;;6255493;28;20399;-78
2023/12/18 08:26:52;;;;;;;0.10;0.10;;;;;;;;;;6256843;28;20111;-78
2023/12/18 08:29:52;;;;;;;0.20;0.20;;;;;;;;;;6243776;28;20029;-77
2023/12/18 08:32:54;;;;;;;0.10;0.10;;;;;;;;;;6247368;28;20029;-81
2023/12/18 08:35:54;;;;;;;0.20;0.20;;;;;;;;;;6250052;28;20025;-81
2023/12/18 08:38:54;;;;;;;0.20;0.20;;;;;;;;;;6261708;28;20021;-81
2023/12/18 08:41:54;;;;;;;0.20;0.20;;;;;;;;;;6263553;28;20021;-78
2023/12/18 08:44:55;;;;;;;0.20;0.20;;;;;;;;;;6249426;28;20026;-77
2023/12/18 08:47:59;;;;;;;0.13;0.13;;;;;;;;;;6251924;28;20029;-77
2023/12/18 08:50:59;;;;;;;0.20;0.20;;;;;;;;;;6265593;28;20515;-77
2023/12/18 08:54:04;;;;;;;0.20;0.20;;;;;;;;;;6259904;28;20026;-78
2023/12/18 08:57:04;;;;;;;0.20;0.20;;;;;;;;;;6248752;28;20121;-76
2023/12/18 09:00:06;;;;;;;0.10;0.10;;;;;;;;;;6262458;28;20036;-77
2023/12/18 09:03:06;;;;;;;0.10;0.10;;;;;;;;;;6251061;28;20045;-78
2023/12/18 09:06:06;;;;;;;0.20;0.20;;;;;;;;;;6258574;28;20033;-77
2023/12/18 09:09:07;;;;;;;0.10;0.10;;;;;;;;;;6251784;28;20033;-78
2023/12/18 09:12:07;;;;;;;0.10;0.10;;;;;;;;;;6271211;28;20033;-77
2023/12/18 09:15:08;;;;;;;0.10;0.10;;;;;;;;;;6258490;28;20040;-77
2023/12/18 09:18:08;;;;;;;0.10;0.10;;;;;;;;;;6249869;28;20060;-77
2023/12/18 09:21:08;;;;;;;0.10;0.10;;;;;;;;;;6260364;28;20051;-77
2023/12/18 09:24:09;;;;;;;0.10;0.10;;;;;;;;;;6254017;28;20037;-78
2023/12/18 09:27:09;;;;;;;0.10;0.10;;;;;;;;;;6262719;28;20025;-78
2023/12/18 09:30:10;;;;;;;0.10;0.10;;;;;;;;;;6257994;28;20072;-77
2023/12/18 09:33:10;;;;;;;0.10;0.10;;;;;;;;;;6245089;28;20026;-78
2023/12/18 09:36:10;;;;;;;0.10;0.10;;;;;;;;;;6255755;28;20019;-78
2023/12/18 09:39:11;;;;;;;0.10;0.10;;;;;;;;;;6251043;28;20536;-78
2023/12/18 09:42:11;;;;;;;0.10;0.10;;;;;;;;;;6247270;28;20017;-78
2023/12/18 09:45:11;;;;;;;0.10;0.10;;;;;;;;;;6261054;28;20021;-78
2023/12/18 09:48:12;;;;;;;0.10;0.10;;;;;;;;;;6263039;28;20027;-78
2023/12/18 09:51:15;;;;;;;0.20;0.20;;;;;;;;;;6254002;28;20535;-78
2023/12/18 09:54:16;;;;;;;0.20;0.20;;;;;;;;;;6244748;28;20079;-77
2023/12/18 09:57:18;;;;;;;0.10;0.10;;;;;;;;;;6243974;28;20120;-77
2023/12/18 10:00:20;;;;;;;0.13;0.13;;;;;;;;;;6257652;28;20070;-78
2023/12/18 10:03:20;;;;;;;0.15;0.15;;;;;;;;;;6260094;28;20041;-78
2023/12/18 10:06:21;;;;;;;0.10;0.10;;;;;;;;;;6249319;28;20499;-78
2023/12/18 10:09:21;;;;;;;0.10;0.10;;;;;;;;;;6264243;28;20024;-77
2023/12/18 10:12:21;;;;;;;0.10;0.10;;;;;;;;;;6265043;28;20043;-78
2023/12/18 10:15:22;;;;;;;0.20;0.20;;;;;;;;;;6267915;28;20015;-78
2023/12/18 10:18:23;;;;;;;0.10;0.10;;;;;;;;;;6268311;28;20025;-77
2023/12/18 10:21:23;;;;;;;0.10;0.10;;;;;;;;;;6262739;28;20131;-78
2023/12/18 10:24:25;;;;;;;0.10;0.10;;;;;;;;;;6246136;28;20026;-78
2023/12/18 10:27:25;;;;;;;0.10;0.10;;;;;;;;;;6247291;28;20049;-78
2023/12/18 10:30:28;;;;;;;0.10;0.10;;;;;;;;;;6253463;28;20041;-78
2023/12/18 10:33:28;;;;;;;0.10;0.10;;;;;;;;;;6258713;28;20115;-78
2023/12/18 10:36:31;;;;;;;0.10;0.10;;;;;;;;;;6258606;28;20021;-77
2023/12/18 10:39:32;;;;;;;0.10;0.10;;;;;;;;;;6266692;28;20163;-78
2023/12/18 10:42:36;;;;;;;0.10;0.10;;;;;;;;;;6256334;28;20051;-77
2023/12/18 10:45:36;;;;;;;0.10;0.10;;;;;;;;;;6254198;28;20029;-78
2023/12/18 10:48:37;;;;;;;0.20;0.20;;;;;;;;;;6246855;28;20032;-78
2023/12/18 10:51:37;;;;;;;0.10;0.10;;;;;;;;;;6250840;28;20063;-77
2023/12/18 10:54:38;;;;;;;0.10;0.10;;;;;;;;;;6253914;28;20021;-77
2023/12/18 10:57:41;;;;;;;0.10;0.10;;;;;;;;;;6259537;28;20479;-78
2023/12/18 11:00:43;;;;;;;0.10;0.10;;;;;;;;;;6257226;28;20142;-77
2023/12/18 11:03:43;;;;;;;0.10;0.10;;;;;;;;;;6256560;28;20029;-78
2023/12/18 11:06:45;;;;;;;0.10;0.10;;;;;;;;;;6260378;28;20103;-78
2023/12/18 11:09:46;;;;;;;0.10;0.10;;;;;;;;;;6255895;28;20541;-79
2023/12/18 11:12:49;;;;;;;0.10;0.10;;;;;;;;;;6243314;28;20017;-78
2023/12/18 11:15:58;;;;;;;0.10;0.10;;;;;;;;;;6260699;28;20037;-78
2023/12/18 11:18:58;;;;;;;0.15;0.15;;;;;;;;;;6257051;28;20669;-78
2023/12/18 11:22:04;;;;;;;0.10;0.10;;;;;;;;;;6251750;28;20068;-81
2023/12/18 11:25:05;;;;;;;0.10;0.10;;;;;;;;;;6233338;28;20032;-82
2023/12/18 11:28:06;;;;;;;0.10;0.10;;;;;;;;;;6259299;28;20040;-82
2023/12/18 11:31:08;;;;;;;0.10;0.10;;;;;;;;;;6252769;28;20528;-82
2023/12/18 11:34:10;;;;;;;0.10;0.10;;;;;;;;;;6251732;28;20021;-82
2023/12/18 11:37:11;;;;;;;0.20;0.20;;;;;;;;;;6247627;28;20087;-83
2023/12/18 11:40:12;;;;;;;;;;;;;;;;;;6253570;28;20030;-81
2023/12/18 11:43:13;;;;;;;0.10;0.10;;;;;;;;;;6243554;28;19979;-81
2023/12/18 11:46:13;;;;;;;0.10;0.10;;;;;;;;;;6257450;28;20516;-81
2023/12/18 11:49:13;;;;;;;0.10;0.10;;;;;;;;;;6258160;28;20032;-82
2023/12/18 11:52:19;;;;;;;0.10;0.10;;;;;;;;;;6267078;28;20096;-81
2023/12/18 11:55:38;;;;;;;0.10;0.10;;;;;;;;;;6243853;28;20025;-82
2023/12/18 11:58:41;;;;;;;0.10;0.10;;;;;;;;;;6265448;28;20064;-81
2023/12/18 12:01:41;;;;;;;0.10;0.10;;;;;;;;;;6266816;28;20070;-82
2023/12/18 12:04:42;;;;;;;0.10;0.10;;;;;;;;;;6267364;28;20495;-78
2023/12/18 12:07:48;;;;;;;0.10;0.10;;;;;;;;;;6263209;28;20438;-78
2023/12/18 12:10:50;;;;;;;0.10;0.10;;;;;;;;;;6257594;28;20563;-78
2023/12/18 12:13:54;;;;;;;0.10;0.10;;;;;;;;;;6259483;28;20025;-78
2023/12/18 12:17:01;;;;;;;0.20;0.20;;;;;;;;;;6248044;28;20022;-79
2023/12/18 12:20:02;;;;;;;0.10;0.10;;;;;;;;;;6250177;28;20032;-78
2023/12/18 12:23:03;;;;;;;0.10;0.10;;;;;;;;;;6252917;28;20482;-78
2023/12/18 12:26:04;;;;;;;0.10;0.10;;;;;;;;;;6258900;28;20342;-78
2023/12/18 12:29:05;;;;;;;0.10;0.10;;;;;;;;;;6269396;28;20396;-79
2023/12/18 12:32:05;;;;;;;0.10;0.10;;;;;;;;;;6255715;28;20107;-78
2023/12/18 12:35:11;;;;;;;0.10;0.10;;;;;;;;;;6274438;28;20815;-78
2023/12/18 12:38:11;;;;;;;0.10;0.10;;;;;;;;;;6254711;28;20498;-78
2023/12/18 12:41:11;;;;;;;0.10;0.10;;;;;;;;;;6269637;28;20306;-78
2023/12/18 12:44:12;;;;;;;0.10;0.10;;;;;;;;;;6272146;28;20141;-78
2023/12/18 12:47:12;;;;;;;0.10;0.10;;;;;;;;;;6271639;28;20025;-78
2023/12/18 12:50:12;;;;;;;0.10;0.10;;;;;;;;;;6253617;28;20032;-78
2023/12/18 12:53:13;;;;;;;0.10;0.10;;;;;;;;;;6250510;28;20028;-79
2023/12/18 12:56:13;;;;;;;0.10;0.10;;;;;;;;;;6251870;28;20022;-78
2023/12/18 12:59:13;;;;;;;0.10;0.10;;;;;;;;;;6246560;28;20025;-78
2023/12/18 13:02:14;;;;;;;0.10;0.10;;;;;;;;;;6244033;28;20025;-78
2023/12/18 13:05:14;;;;;;;0.10;0.10;;;;;;;;;;6243810;28;20144;-78
2023/12/18 13:08:14;;;;;;;0.10;0.10;;;;;;;;;;6252557;28;20695;-78
2023/12/18 13:11:16;;;;;;;0.10;0.10;;;;;;;;;;6256926;28;20044;-78
2023/12/18 13:14:16;;;;;;;0.10;0.10;;;;;;;;;;6275885;28;20032;-78
2023/12/18 13:17:16;;;;;;;0.10;0.10;;;;;;;;;;6275731;28;20111;-77
2023/12/18 13:20:18;;;;;;;0.10;0.10;;;;;;;;;;6269040;28;20025;-78
2023/12/18 13:23:18;;;;;;;0.10;0.10;;;;;;;;;;6248303;28;20468;-78
2023/12/18 13:26:18;;;;;;;0.10;0.10;;;;;;;;;;6262659;28;20032;-77
2023/12/18 13:29:18;;;;;;;0.10;0.10;;;;;;;;;;6276964;28;20033;-77
2023/12/18 13:32:20;;;;;;;0.10;0.10;;;;;;;;;;6266817;28;20029;-78
2023/12/18 13:35:22;;;;;;;;;;;;;;;;;;6276071;28;20021;-78
2023/12/18 13:38:22;;;;;;;0.10;0.10;;;;;;;;;;6277198;28;19913;-78
2023/12/18 13:41:32;;;;;;;0.10;0.10;;;;;;;;;;6271681;28;20032;-77
2023/12/18 13:44:33;;;;;;;0.10;0.10;;;;;;;;;;6266959;28;20483;-77
2023/12/18 13:47:33;;;;;;;0.10;0.10;;;;;;;;;;6256549;28;20028;-77
2023/12/18 13:50:34;;;;;;;0.10;0.10;;;;;;;;;;6260016;28;20483;-77
2023/12/18 13:53:34;;;;;;;0.10;0.10;;;;;;;;;;6249449;28;20017;-79
2023/12/18 13:56:36;;;;;;;0.20;0.20;;;;;;;;;;6248108;28;20056;-79
2023/12/18 13:59:36;;;;;;;0.10;0.10;;;;;;;;;;6250960;28;20032;-79
2023/12/18 14:02:36;;;;;;;0.10;0.10;;;;;;;;;;6260894;28;20025;-77
2023/12/18 14:05:36;;;;;;;0.10;0.10;;;;;;;;;;6252629;28;20045;-77
2023/12/18 14:08:40;;;;;;;0.17;0.17;;;;;;;;;;6255410;28;20590;-77
2023/12/18 14:11:40;;;;;;;0.10;0.10;;;;;;;;;;6269711;28;20025;-77
2023/12/18 14:14:40;;;;;;;0.10;0.10;;;;;;;;;;6259482;28;20037;-79
2023/12/18 14:17:41;;;;;;;0.10;0.10;;;;;;;;;;6261857;28;20572;-79
2023/12/18 14:20:41;;;;;;;0.10;0.10;;;;;;;;;;6265792;28;20384;-79
2023/12/18 14:23:41;;;;;;;0.10;0.10;;;;;;;;;;6252382;28;20399;-79
2023/12/18 14:26:42;;;;;;;0.10;0.10;;;;;;;;;;6263602;28;20064;-79
2023/12/18 14:29:42;;;;;;;0.10;0.10;;;;;;;;;;6271676;28;20025;-78
2023/12/18 14:32:42;;;;;;;0.10;0.10;;;;;;;;;;6263765;28;20051;-79
2023/12/18 14:35:44;;;;;;;0.10;0.10;;;;;;;;;;6275189;28;20009;-79
2023/12/18 14:38:45;;;;;;;0.10;0.10;;;;;;;;;;6279695;28;20021;-79
2023/12/18 14:41:45;;;;;;;0.20;0.20;;;;;;;;;;6261671;28;20039;-79
2023/12/18 14:44:45;;;;;;;0.17;0.17;;;;;;;;;;6259515;28;20116;-78
2023/12/18 14:47:46;;;;;;;0.20;0.20;;;;;;;;;;6264778;28;20025;-78
2023/12/18 14:50:46;;;;;;;0.13;0.13;;;;;;;;;;6267984;28;20020;-78
2023/12/18 14:53:46;;;;;;;0.20;0.20;;;;;;;;;;6272356;28;20048;-79
2023/12/18 14:56:52;;;;;;;0.10;0.10;;;;;;;;;;6250521;28;20052;-78
2023/12/18 14:59:54;;;;;;;0.20;0.20;;;;;;;;;;6250350;28;20445;-78
2023/12/18 15:02:54;;;;;;;0.10;0.10;;;;;;;;;;6272289;28;20024;-79
2023/12/18 15:05:55;;;;;;;0.20;0.20;;;;;;;;;;6270531;28;20122;-79
2023/12/18 15:08:55;;;;;;;0.20;0.20;;;;;;;;;;6271023;28;20029;-79
2023/12/18 15:11:55;;;;;;;0.20;0.20;;;;;;;;;;6266223;28;20033;-77
2023/12/18 15:14:55;;;;;;;0.10;0.10;;;;;;;;;;6273399;28;20016;-76
2023/12/18 15:17:56;;;;;;;0.10;0.10;;;;;;;;;;6271865;28;20456;-76
2023/12/18 15:20:56;;;;;;;0.10;0.10;;;;;;;;;;6243330;28;20033;-76
2023/12/18 15:23:56;;;;;;;0.10;0.10;;;;;;;;;;6257562;28;20029;-79
2023/12/18 15:26:57;;;;;;;0.20;0.20;;;;;;;;;;6260747;28;20403;-78
2023/12/18 15:29:57;;;;;;;0.10;0.10;;;;;;;;;;6270697;28;20056;-79
2023/12/18 15:32:58;;;;;;;0.10;0.10;;;;;;;;;;6259505;28;20032;-78
2023/12/18 15:36:00;;;;;;;0.20;0.20;;;;;;;;;;6282780;28;20108;-79
2023/12/18 15:39:01;;;;;;;0.10;0.10;;;;;;;;;;6250436;28;20021;-79
2023/12/18 15:42:01;;;;;;;0.20;0.20;;;;;;;;;;6270833;28;20413;-78
2023/12/18 15:45:02;;;;;;;0.20;0.20;;;;;;;;;;6254483;28;20029;-79
2023/12/18 15:48:03;;;;;;;0.17;0.17;;;;;;;;;;6270570;28;20088;-79
2023/12/18 15:51:04;;;;;;;0.20;0.20;;;;;;;;;;6248830;28;20021;-78
2023/12/18 15:54:04;;;;;;;0.17;0.17;;;;;;;;;;6267644;28;20013;-78
2023/12/18 15:57:05;;;;;;;0.10;0.10;;;;;;;;;;6256516;28;20112;-78
2023/12/18 16:00:06;;;;;;;0.10;0.10;;;;;;;;;;6248614;28;20499;-78
2023/12/18 16:03:06;;;;;;;0.10;0.10;;;;;;;;;;6246991;28;20060;-77
2023/12/18 16:06:06;;;;;;;0.20;0.20;;;;;;;;;;6242810;28;20061;-78
2023/12/18 16:09:07;;;;;;;0.20;0.20;;;;;;;;;;6250879;28;20087;-77
2023/12/18 16:12:08;;;;;;;0.10;0.10;;;;;;;;;;6247268;28;20017;-79
2023/12/18 16:15:08;;;;;;;0.20;0.20;;;;;;;;;;6241650;28;20109;-77
2023/12/18 16:18:08;;;;;;;0.20;0.20;;;;;;;;;;6254667;28;20021;-77
2023/12/18 16:21:09;;;;;;;0.10;0.10;;;;;;;;;;6271924;28;20395;-77
2023/12/18 16:24:09;;;;;;;0.20;0.20;;;;;;;;;;6262183;28;20029;-78
2023/12/18 16:27:10;;;;;;;0.10;0.10;;;;;;;;;;6249206;28;20109;-77
2023/12/18 16:30:10;;;;;;;0.20;0.20;;;;;;;;;;6270656;28;20021;-78
2023/12/18 16:33:10;;;;;;;0.20;0.20;;;;;;;;;;6261786;28;20455;-76
2023/12/18 16:36:15;;;;;;;0.17;0.17;;;;;;;;;;6256665;28;20025;-77
2023/12/18 16:39:15;;;;;;;0.20;0.20;;;;;;;;;;6255497;28;20068;-77
2023/12/18 16:42:16;;;;;;;0.20;0.20;;;;;;;;;;6261086;28;20025;-77
2023/12/18 16:45:17;;;;;;;0.20;0.20;;;;;;;;;;6244683;28;20119;-76
2023/12/18 16:48:17;;;;;;;0.20;0.20;;;;;;;;;;6248332;28;20372;-76
2023/12/18 16:51:17;;;;;;;0.20;0.20;;;;;;;;;;6253093;28;20017;-76
2023/12/18 16:54:18;;;;;;;0.20;0.20;;;;;;;;;;6251774;28;20107;-75
2023/12/18 16:57:18;;;;;;;0.20;0.20;;;;;;;;;;6254135;28;20033;-76
2023/12/18 17:00:18;;;;;;;0.20;0.20;;;;;;;;;;6244779;28;20476;-76
2023/12/18 17:03:21;;;;;;;0.20;0.20;;;;;;;;;;6251628;28;20025;-75
2023/12/18 17:06:21;;;;;;;0.20;0.20;;;;;;;;;;6243072;28;20048;-76
2023/12/18 17:09:21;;;;;;;0.20;0.20;;;;;;;;;;6271209;28;20025;-76
2023/12/18 17:12:22;;;;;;;0.20;0.20;;;;;;;;;;6271022;28;20371;-75
2023/12/18 17:15:28;;;;;;;0.20;0.20;;;;;;;;;;6278495;28;20032;-76
2023/12/18 17:18:28;;;;;;;0.20;0.20;;;;;;;;;;6282642;28;20051;-76
2023/12/18 17:21:29;;;;;;;0.20;0.20;;;;;;;;;;6253774;28;20475;-75
2023/12/18 17:24:29;;;;;;;0.20;0.20;;;;;;;;;;6267387;28;20031;-76
2023/12/18 17:27:29;;;;;;;0.20;0.20;;;;;;;;;;6259082;28;20536;-75
2023/12/18 17:30:29;;;;;;;0.20;0.20;;;;;;;;;;6251590;28;20025;-75
2023/12/18 17:33:29;;;;;;;0.20;0.20;;;;;;;;;;6258295;28;20093;-75
2023/12/18 17:36:30;;;;;;;0.20;0.20;;;;;;;;;;6255786;28;20447;-75
2023/12/18 17:39:30;;;;;;;0.20;0.20;;;;;;;;;;6259660;28;20023;-75
2023/12/18 17:42:31;;;;;;;0.20;0.20;;;;;;;;;;6250143;28;20026;-77
2023/12/18 17:45:31;;;;;;;0.20;0.20;;;;;;;;;;6262864;28;20020;-78
2023/12/18 17:48:31;;;;;;;0.20;0.20;;;;;;;;;;6254264;28;20024;-77
2023/12/18 17:51:32;;;;;;;0.10;0.10;;;;;;;;;;6253868;28;20045;-77
2023/12/18 17:54:32;;;;;;;0.10;0.10;;;;;;;;;;6259201;28;20495;-78
2023/12/18 17:57:32;;;;;;;0.20;0.20;;;;;;;;;;6255815;28;20038;-77
2023/12/18 18:00:35;;;;;;;0.20;0.20;;;;;;;;;;6249796;28;20024;-77
2023/12/18 18:03:35;;;;;;;0.10;0.10;;;;;;;;;;6256314;28;20021;-76